sensor_id;sensor_type;location;lat;lon;timestamp;temperature;humidity
16267;DHT22;8241;48.786;9.250;2023-03-01T00:02:06;0.80;99.20
16267;DHT22;8241;48.786;9.250;2023-03-01T00:04:33;0.70;99.50
16267;DHT22;8241;48.786;9.250;2023-03-01T00:07:02;0.70;99.70
16267;DHT22;8241;48.786;9.250;2023-03-01T00:09:30;0.70;99.70
16267;DHT22;8241;48.786;9.250;2023-03-01T00:11:57;0.70;99.60
16267;DHT22;8241;48.786;9.250;2023-03-01T00:14:24;0.70;99.50
16267;DHT22;8241;48.786;9.250;2023-03-01T00:16:52;0.70;99.40
16267;DHT22;8241;48.786;9.250;2023-03-01T00:19:19;0.70;99.60
16267;DHT22;8241;48.786;9.250;2023-03-01T00:21:47;0.70;99.80
16267;DHT22;8241;48.786;9.250;2023-03-01T00:24:15;0.70;99.70
16267;DHT22;8241;48.786;9.250;2023-03-01T00:26:44;0.70;99.90
16267;DHT22;8241;48.786;9.250;2023-03-01T00:29:12;0.60;99.90
16267;DHT22;8241;48.786;9.250;2023-03-01T00:31:39;0.60;99.90
16267;DHT22;8241;48.786;9.250;2023-03-01T00:34:06;0.60;99.90
16267;DHT22;8241;48.786;9.250;2023-03-01T00:36:35;0.60;99.90
16267;DHT22;8241;48.786;9.250;2023-03-01T00:39:03;0.60;99.90
16267;DHT22;8241;48.786;9.250;2023-03-01T00:41:30;0.60;99.90
16267;DHT22;8241;48.786;9.250;2023-03-01T00:44:00;0.60;99.90
16267;DHT22;8241;48.786;9.250;2023-03-01T00:46:28;0.50;99.90
16267;DHT22;8241;48.786;9.250;2023-03-01T00:48:56;0.50;99.90
16267;DHT22;8241;48.786;9.250;2023-03-01T00:51:24;0.50;99.90
16267;DHT22;8241;48.786;9.250;2023-03-01T00:53:52;0.50;99.90
16267;DHT22;8241;48.786;9.250;2023-03-01T00:56:20;0.50;99.90
16267;DHT22;8241;48.786;9.250;2023-03-01T00:58:47;0.50;99.90
16267;DHT22;8241;48.786;9.250;2023-03-01T01:01:17;0.50;99.90
16267;DHT22;8241;48.786;9.250;2023-03-01T01:03:46;0.50;99.90
16267;DHT22;8241;48.786;9.250;2023-03-01T01:06:15;0.50;99.90
16267;DHT22;8241;48.786;9.250;2023-03-01T01:08:42;0.50;99.90
16267;DHT22;8241;48.786;9.250;2023-03-01T01:11:10;0.50;99.90
16267;DHT22;8241;48.786;9.250;2023-03-01T01:13:37;0.40;99.90
16267;DHT22;8241;48.786;9.250;2023-03-01T01:16:05;0.40;99.90
16267;DHT22;8241;48.786;9.250;2023-03-01T01:18:34;0.40;99.90
16267;DHT22;8241;48.786;9.250;2023-03-01T01:21:05;0.40;99.90
16267;DHT22;8241;48.786;9.250;2023-03-01T01:23:34;0.40;99.90
16267;DHT22;8241;48.786;9.250;2023-03-01T01:26:05;0.40;99.90
16267;DHT22;8241;48.786;9.250;2023-03-01T01:28:33;0.40;99.90
16267;DHT22;8241;48.786;9.250;2023-03-01T01:31:00;0.40;99.90
16267;DHT22;8241;48.786;9.250;2023-03-01T01:33:27;0.40;99.90
16267;DHT22;8241;48.786;9.250;2023-03-01T01:35:55;0.30;99.90
16267;DHT22;8241;48.786;9.250;2023-03-01T01:38:22;0.40;99.90
16267;DHT22;8241;48.786;9.250;2023-03-01T01:40:50;0.40;99.90
16267;DHT22;8241;48.786;9.250;2023-03-01T01:43:23;0.30;99.90
16267;DHT22;8241;48.786;9.250;2023-03-01T01:45:51;0.30;99.90
16267;DHT22;8241;48.786;9.250;2023-03-01T01:48:22;0.30;99.90
16267;DHT22;8241;48.786;9.250;2023-03-01T01:50:56;0.20;99.90
16267;DHT22;8241;48.786;9.250;2023-03-01T01:53:25;0.30;99.90
16267;DHT22;8241;48.786;9.250;2023-03-01T01:55:58;0.30;99.90
16267;DHT22;8241;48.786;9.250;2023-03-01T01:58:27;0.30;99.90
16267;DHT22;8241;48.786;9.250;2023-03-01T02:00:56;0.40;99.90
16267;DHT22;8241;48.786;9.250;2023-03-01T02:03:25;0.50;99.90
16267;DHT22;8241;48.786;9.250;2023-03-01T02:06:00;0.50;99.90
16267;DHT22;8241;48.786;9.250;2023-03-01T02:08:30;0.50;99.90
16267;DHT22;8241;48.786;9.250;2023-03-01T02:10:58;0.60;99.90
16267;DHT22;8241;48.786;9.250;2023-03-01T02:13:26;0.60;99.90
16267;DHT22;8241;48.786;9.250;2023-03-01T02:15:54;0.70;99.90
16267;DHT22;8241;48.786;9.250;2023-03-01T02:18:23;0.70;99.90
16267;DHT22;8241;48.786;9.250;2023-03-01T02:21:01;0.80;99.90
16267;DHT22;8241;48.786;9.250;2023-03-01T02:23:33;0.80;99.90
16267;DHT22;8241;48.786;9.250;2023-03-01T02:26:06;0.80;99.90
16267;DHT22;8241;48.786;9.250;2023-03-01T02:28:36;0.90;99.90
16267;DHT22;8241;48.786;9.250;2023-03-01T02:31:05;0.90;99.90
16267;DHT22;8241;48.786;9.250;2023-03-01T02:33:49;0.90;99.90
16267;DHT22;8241;48.786;9.250;2023-03-01T02:36:19;1.00;99.90
16267;DHT22;8241;48.786;9.250;2023-03-01T02:38:48;1.00;99.90
16267;DHT22;8241;48.786;9.250;2023-03-01T02:41:17;1.00;99.90
16267;DHT22;8241;48.786;9.250;2023-03-01T02:43:47;1.00;99.90
16267;DHT22;8241;48.786;9.250;2023-03-01T02:46:19;1.00;99.90
16267;DHT22;8241;48.786;9.250;2023-03-01T02:48:48;1.00;99.90
16267;DHT22;8241;48.786;9.250;2023-03-01T02:54:15;1.00;99.90
16267;DHT22;8241;48.786;9.250;2023-03-01T02:56:45;1.00;99.90
16267;DHT22;8241;48.786;9.250;2023-03-01T02:59:20;1.10;99.90
16267;DHT22;8241;48.786;9.250;2023-03-01T03:01:48;1.10;99.90
16267;DHT22;8241;48.786;9.250;2023-03-01T03:04:17;1.10;99.90
16267;DHT22;8241;48.786;9.250;2023-03-01T03:06:48;1.10;99.90
16267;DHT22;8241;48.786;9.250;2023-03-01T03:09:19;1.10;99.90
16267;DHT22;8241;48.786;9.250;2023-03-01T03:11:46;1.10;99.90
16267;DHT22;8241;48.786;9.250;2023-03-01T03:14:17;1.20;99.90
16267;DHT22;8241;48.786;9.250;2023-03-01T03:16:48;1.20;99.90
16267;DHT22;8241;48.786;9.250;2023-03-01T03:19:16;1.20;99.90
16267;DHT22;8241;48.786;9.250;2023-03-01T03:21:43;1.20;99.90
16267;DHT22;8241;48.786;9.250;2023-03-01T03:24:15;1.20;99.90
16267;DHT22;8241;48.786;9.250;2023-03-01T03:26:43;1.20;99.90
16267;DHT22;8241;48.786;9.250;2023-03-01T03:29:10;1.20;99.90
16267;DHT22;8241;48.786;9.250;2023-03-01T03:31:38;1.20;99.90
16267;DHT22;8241;48.786;9.250;2023-03-01T03:34:05;1.30;99.90
16267;DHT22;8241;48.786;9.250;2023-03-01T03:36:32;1.20;99.90
16267;DHT22;8241;48.786;9.250;2023-03-01T03:39:00;1.20;99.90
16267;DHT22;8241;48.786;9.250;2023-03-01T03:41:26;1.30;99.90
16267;DHT22;8241;48.786;9.250;2023-03-01T03:43:53;1.30;99.90
16267;DHT22;8241;48.786;9.250;2023-03-01T03:46:23;1.30;99.90
16267;DHT22;8241;48.786;9.250;2023-03-01T03:48:52;1.30;99.90
16267;DHT22;8241;48.786;9.250;2023-03-01T03:51:19;1.30;99.90
16267;DHT22;8241;48.786;9.250;2023-03-01T03:53:48;1.30;99.90
16267;DHT22;8241;48.786;9.250;2023-03-01T03:56:15;1.40;99.90
16267;DHT22;8241;48.786;9.250;2023-03-01T03:58:42;1.40;99.90
16267;DHT22;8241;48.786;9.250;2023-03-01T04:01:08;1.40;99.90
16267;DHT22;8241;48.786;9.250;2023-03-01T04:03:36;1.50;99.90
16267;DHT22;8241;48.786;9.250;2023-03-01T04:06:05;1.40;99.90
16267;DHT22;8241;48.786;9.250;2023-03-01T04:08:32;1.50;99.90
16267;DHT22;8241;48.786;9.250;2023-03-01T04:11:01;1.50;99.90
16267;DHT22;8241;48.786;9.250;2023-03-01T04:13:51;1.50;99.90
16267;DHT22;8241;48.786;9.250;2023-03-01T04:16:19;1.40;99.90
16267;DHT22;8241;48.786;9.250;2023-03-01T04:18:46;1.50;99.90
16267;DHT22;8241;48.786;9.250;2023-03-01T04:21:14;1.50;99.90
16267;DHT22;8241;48.786;9.250;2023-03-01T04:23:41;1.50;99.90
16267;DHT22;8241;48.786;9.250;2023-03-01T04:26:09;1.50;99.90
16267;DHT22;8241;48.786;9.250;2023-03-01T04:28:37;1.50;99.90
16267;DHT22;8241;48.786;9.250;2023-03-01T04:31:07;1.50;99.90
16267;DHT22;8241;48.786;9.250;2023-03-01T04:33:39;1.50;99.90
16267;DHT22;8241;48.786;9.250;2023-03-01T04:36:08;1.60;99.90
16267;DHT22;8241;48.786;9.250;2023-03-01T04:38:37;1.60;99.90
16267;DHT22;8241;48.786;9.250;2023-03-01T04:41:05;1.60;99.80
16267;DHT22;8241;48.786;9.250;2023-03-01T04:43:32;1.60;99.80
16267;DHT22;8241;48.786;9.250;2023-03-01T04:46:03;1.60;99.90
16267;DHT22;8241;48.786;9.250;2023-03-01T04:48:32;1.70;99.70
16267;DHT22;8241;48.786;9.250;2023-03-01T04:50:59;1.70;99.70
16267;DHT22;8241;48.786;9.250;2023-03-01T04:53:27;1.70;99.60
16267;DHT22;8241;48.786;9.250;2023-03-01T04:55:56;1.70;99.40
16267;DHT22;8241;48.786;9.250;2023-03-01T04:58:23;1.60;99.50
16267;DHT22;8241;48.786;9.250;2023-03-01T05:00:50;1.60;99.30
16267;DHT22;8241;48.786;9.250;2023-03-01T05:03:17;1.70;99.40
16267;DHT22;8241;48.786;9.250;2023-03-01T05:05:50;1.70;99.30
16267;DHT22;8241;48.786;9.250;2023-03-01T05:08:17;1.70;99.30
16267;DHT22;8241;48.786;9.250;2023-03-01T05:10:45;1.70;99.20
16267;DHT22;8241;48.786;9.250;2023-03-01T05:13:14;1.70;99.50
16267;DHT22;8241;48.786;9.250;2023-03-01T05:15:46;1.70;99.10
16267;DHT22;8241;48.786;9.250;2023-03-01T05:18:14;1.70;99.10
16267;DHT22;8241;48.786;9.250;2023-03-01T05:20:40;1.70;99.30
16267;DHT22;8241;48.786;9.250;2023-03-01T05:23:07;1.70;99.40
16267;DHT22;8241;48.786;9.250;2023-03-01T05:25:34;1.70;99.30
16267;DHT22;8241;48.786;9.250;2023-03-01T05:28:06;1.70;99.50
16267;DHT22;8241;48.786;9.250;2023-03-01T05:30:34;1.60;99.30
16267;DHT22;8241;48.786;9.250;2023-03-01T05:33:02;1.70;99.40
16267;DHT22;8241;48.786;9.250;2023-03-01T05:35:31;1.60;99.50
16267;DHT22;8241;48.786;9.250;2023-03-01T05:37:59;1.60;99.50
16267;DHT22;8241;48.786;9.250;2023-03-01T05:40:25;1.60;99.50
16267;DHT22;8241;48.786;9.250;2023-03-01T05:42:54;1.60;99.40
16267;DHT22;8241;48.786;9.250;2023-03-01T05:45:22;1.60;99.50
16267;DHT22;8241;48.786;9.250;2023-03-01T05:47:51;1.60;99.50
16267;DHT22;8241;48.786;9.250;2023-03-01T05:50:21;1.50;99.80
16267;DHT22;8241;48.786;9.250;2023-03-01T05:52:50;1.50;99.80
16267;DHT22;8241;48.786;9.250;2023-03-01T05:55:19;1.50;99.80
16267;DHT22;8241;48.786;9.250;2023-03-01T05:57:46;1.50;99.90
16267;DHT22;8241;48.786;9.250;2023-03-01T06:00:16;1.50;99.80
16267;DHT22;8241;48.786;9.250;2023-03-01T06:02:44;1.50;99.80
16267;DHT22;8241;48.786;9.250;2023-03-01T06:05:13;1.50;99.80
16267;DHT22;8241;48.786;9.250;2023-03-01T06:07:41;1.50;99.80
16267;DHT22;8241;48.786;9.250;2023-03-01T06:10:12;1.50;99.90
16267;DHT22;8241;48.786;9.250;2023-03-01T06:12:41;1.60;99.90
16267;DHT22;8241;48.786;9.250;2023-03-01T06:15:11;1.50;99.90
16267;DHT22;8241;48.786;9.250;2023-03-01T06:17:40;1.50;99.90
16267;DHT22;8241;48.786;9.250;2023-03-01T06:20:10;1.50;99.90
16267;DHT22;8241;48.786;9.250;2023-03-01T06:22:39;1.50;99.90
16267;DHT22;8241;48.786;9.250;2023-03-01T06:25:14;1.50;99.90
16267;DHT22;8241;48.786;9.250;2023-03-01T06:27:42;1.50;99.90
16267;DHT22;8241;48.786;9.250;2023-03-01T06:30:10;1.50;99.90
16267;DHT22;8241;48.786;9.250;2023-03-01T06:32:38;1.50;99.90
16267;DHT22;8241;48.786;9.250;2023-03-01T06:35:11;1.50;99.90
16267;DHT22;8241;48.786;9.250;2023-03-01T06:37:40;1.50;99.90
16267;DHT22;8241;48.786;9.250;2023-03-01T06:40:10;1.60;99.90
16267;DHT22;8241;48.786;9.250;2023-03-01T06:42:40;1.50;99.70
16267;DHT22;8241;48.786;9.250;2023-03-01T06:45:08;1.50;99.70
16267;DHT22;8241;48.786;9.250;2023-03-01T06:47:35;1.50;99.90
16267;DHT22;8241;48.786;9.250;2023-03-01T06:50:03;1.50;99.70
16267;DHT22;8241;48.786;9.250;2023-03-01T06:52:30;1.60;99.70
16267;DHT22;8241;48.786;9.250;2023-03-01T06:55:04;1.60;99.50
16267;DHT22;8241;48.786;9.250;2023-03-01T06:57:32;1.70;99.50
16267;DHT22;8241;48.786;9.250;2023-03-01T06:59:59;1.70;99.30
16267;DHT22;8241;48.786;9.250;2023-03-01T07:02:26;1.60;99.20
16267;DHT22;8241;48.786;9.250;2023-03-01T07:04:53;1.50;99.60
16267;DHT22;8241;48.786;9.250;2023-03-01T07:07:20;1.50;99.50
16267;DHT22;8241;48.786;9.250;2023-03-01T07:09:49;1.50;99.60
16267;DHT22;8241;48.786;9.250;2023-03-01T07:12:18;1.50;99.60
16267;DHT22;8241;48.786;9.250;2023-03-01T07:14:45;1.50;99.70
16267;DHT22;8241;48.786;9.250;2023-03-01T07:17:12;1.50;99.50
16267;DHT22;8241;48.786;9.250;2023-03-01T07:19:41;1.50;99.50
16267;DHT22;8241;48.786;9.250;2023-03-01T07:22:09;1.50;99.50
16267;DHT22;8241;48.786;9.250;2023-03-01T07:24:36;1.50;99.60
16267;DHT22;8241;48.786;9.250;2023-03-01T07:27:03;1.40;99.40
16267;DHT22;8241;48.786;9.250;2023-03-01T07:29:31;1.40;99.60
16267;DHT22;8241;48.786;9.250;2023-03-01T07:31:58;1.40;99.60
16267;DHT22;8241;48.786;9.250;2023-03-01T07:34:25;1.40;99.50
16267;DHT22;8241;48.786;9.250;2023-03-01T07:36:53;1.50;99.60
16267;DHT22;8241;48.786;9.250;2023-03-01T07:39:21;1.60;99.40
16267;DHT22;8241;48.786;9.250;2023-03-01T07:41:49;1.70;99.30
16267;DHT22;8241;48.786;9.250;2023-03-01T07:44:20;1.80;99.10
16267;DHT22;8241;48.786;9.250;2023-03-01T07:46:50;2.00;98.70
16267;DHT22;8241;48.786;9.250;2023-03-01T07:49:21;2.10;98.70
16267;DHT22;8241;48.786;9.250;2023-03-01T07:51:57;2.20;98.40
16267;DHT22;8241;48.786;9.250;2023-03-01T07:54:24;2.30;98.30
16267;DHT22;8241;48.786;9.250;2023-03-01T07:56:51;2.30;98.00
16267;DHT22;8241;48.786;9.250;2023-03-01T07:59:21;2.40;97.90
16267;DHT22;8241;48.786;9.250;2023-03-01T08:01:54;2.40;97.90
16267;DHT22;8241;48.786;9.250;2023-03-01T08:04:21;2.50;97.80
16267;DHT22;8241;48.786;9.250;2023-03-01T08:06:51;2.40;97.80
16267;DHT22;8241;48.786;9.250;2023-03-01T08:09:19;2.40;97.70
16267;DHT22;8241;48.786;9.250;2023-03-01T08:11:46;2.50;97.80
16267;DHT22;8241;48.786;9.250;2023-03-01T08:14:13;2.40;97.90
16267;DHT22;8241;48.786;9.250;2023-03-01T08:16:40;2.50;97.40
16267;DHT22;8241;48.786;9.250;2023-03-01T08:19:12;2.40;97.40
16267;DHT22;8241;48.786;9.250;2023-03-01T08:21:39;2.50;97.30
16267;DHT22;8241;48.786;9.250;2023-03-01T08:24:06;2.50;97.30
16267;DHT22;8241;48.786;9.250;2023-03-01T08:26:36;2.60;97.40
16267;DHT22;8241;48.786;9.250;2023-03-01T08:29:03;2.60;97.30
16267;DHT22;8241;48.786;9.250;2023-03-01T08:31:32;2.70;97.10
16267;DHT22;8241;48.786;9.250;2023-03-01T08:34:01;2.70;97.00
16267;DHT22;8241;48.786;9.250;2023-03-01T08:36:35;2.80;97.00
16267;DHT22;8241;48.786;9.250;2023-03-01T08:39:03;2.80;97.00
16267;DHT22;8241;48.786;9.250;2023-03-01T08:41:30;2.80;96.90
16267;DHT22;8241;48.786;9.250;2023-03-01T08:43:57;2.80;96.90
16267;DHT22;8241;48.786;9.250;2023-03-01T08:46:25;2.80;96.80
16267;DHT22;8241;48.786;9.250;2023-03-01T08:48:52;2.90;96.80
16267;DHT22;8241;48.786;9.250;2023-03-01T08:51:20;2.90;96.60
16267;DHT22;8241;48.786;9.250;2023-03-01T08:53:49;3.00;96.80
16267;DHT22;8241;48.786;9.250;2023-03-01T08:56:16;3.00;96.50
16267;DHT22;8241;48.786;9.250;2023-03-01T08:58:46;3.00;96.60
16267;DHT22;8241;48.786;9.250;2023-03-01T09:01:15;3.00;96.70
16267;DHT22;8241;48.786;9.250;2023-03-01T09:03:43;3.10;97.00
16267;DHT22;8241;48.786;9.250;2023-03-01T09:06:10;3.10;96.50
16267;DHT22;8241;48.786;9.250;2023-03-01T09:08:39;3.20;96.40
16267;DHT22;8241;48.786;9.250;2023-03-01T09:11:10;3.20;96.30
16267;DHT22;8241;48.786;9.250;2023-03-01T09:13:37;3.30;96.40
16267;DHT22;8241;48.786;9.250;2023-03-01T09:16:07;3.30;96.10
16267;DHT22;8241;48.786;9.250;2023-03-01T09:18:35;3.40;95.90
16267;DHT22;8241;48.786;9.250;2023-03-01T09:21:03;3.50;96.00
16267;DHT22;8241;48.786;9.250;2023-03-01T09:23:35;3.60;95.90
16267;DHT22;8241;48.786;9.250;2023-03-01T09:26:04;3.60;95.70
16267;DHT22;8241;48.786;9.250;2023-03-01T09:28:33;3.70;95.50
16267;DHT22;8241;48.786;9.250;2023-03-01T09:31:02;3.80;95.50
16267;DHT22;8241;48.786;9.250;2023-03-01T09:33:33;3.80;95.30
16267;DHT22;8241;48.786;9.250;2023-03-01T09:36:01;3.90;94.60
16267;DHT22;8241;48.786;9.250;2023-03-01T09:38:29;4.10;94.40
16267;DHT22;8241;48.786;9.250;2023-03-01T09:40:56;4.30;94.00
16267;DHT22;8241;48.786;9.250;2023-03-01T09:43:28;4.50;93.90
16267;DHT22;8241;48.786;9.250;2023-03-01T09:46:03;4.80;93.50
16267;DHT22;8241;48.786;9.250;2023-03-01T09:48:36;5.20;92.70
16267;DHT22;8241;48.786;9.250;2023-03-01T09:51:08;6.00;91.60
16267;DHT22;8241;48.786;9.250;2023-03-01T09:53:39;6.30;91.10
16267;DHT22;8241;48.786;9.250;2023-03-01T09:56:13;6.60;90.70
16267;DHT22;8241;48.786;9.250;2023-03-01T09:58:51;7.20;89.30
16267;DHT22;8241;48.786;9.250;2023-03-01T10:01:34;7.50;87.30
16267;DHT22;8241;48.786;9.250;2023-03-01T10:04:12;7.50;87.20
16267;DHT22;8241;48.786;9.250;2023-03-01T10:06:46;7.80;86.50
16267;DHT22;8241;48.786;9.250;2023-03-01T10:09:18;7.90;86.50
16267;DHT22;8241;48.786;9.250;2023-03-01T10:11:49;8.40;85.30
16267;DHT22;8241;48.786;9.250;2023-03-01T10:14:29;8.50;84.60
16267;DHT22;8241;48.786;9.250;2023-03-01T10:17:00;8.50;84.40
16267;DHT22;8241;48.786;9.250;2023-03-01T10:19:32;8.70;83.50
16267;DHT22;8241;48.786;9.250;2023-03-01T10:22:10;8.60;83.10
16267;DHT22;8241;48.786;9.250;2023-03-01T10:24:38;8.60;83.40
16267;DHT22;8241;48.786;9.250;2023-03-01T10:27:09;8.70;84.10
16267;DHT22;8241;48.786;9.250;2023-03-01T10:29:45;8.80;84.20
16267;DHT22;8241;48.786;9.250;2023-03-01T10:32:17;8.90;83.60
16267;DHT22;8241;48.786;9.250;2023-03-01T10:34:46;8.90;82.90
16267;DHT22;8241;48.786;9.250;2023-03-01T10:37:15;9.10;82.60
16267;DHT22;8241;48.786;9.250;2023-03-01T10:39:58;9.10;82.00
16267;DHT22;8241;48.786;9.250;2023-03-01T10:42:29;9.00;81.40
16267;DHT22;8241;48.786;9.250;2023-03-01T10:44:58;9.00;82.50
16267;DHT22;8241;48.786;9.250;2023-03-01T10:47:34;9.00;82.60
16267;DHT22;8241;48.786;9.250;2023-03-01T10:50:03;8.90;82.20
16267;DHT22;8241;48.786;9.250;2023-03-01T10:52:33;9.00;82.50
16267;DHT22;8241;48.786;9.250;2023-03-01T10:55:04;9.10;82.10
16267;DHT22;8241;48.786;9.250;2023-03-01T10:57:46;8.90;82.20
16267;DHT22;8241;48.786;9.250;2023-03-01T11:00:23;8.90;81.90
16267;DHT22;8241;48.786;9.250;2023-03-01T11:03:05;8.90;83.10
16267;DHT22;8241;48.786;9.250;2023-03-01T11:05:36;9.30;83.40
16267;DHT22;8241;48.786;9.250;2023-03-01T11:08:04;9.50;82.40
16267;DHT22;8241;48.786;9.250;2023-03-01T11:10:33;9.70;81.30
16267;DHT22;8241;48.786;9.250;2023-03-01T11:13:07;9.70;79.50
16267;DHT22;8241;48.786;9.250;2023-03-01T11:15:35;9.80;80.40
16267;DHT22;8241;48.786;9.250;2023-03-01T11:18:04;10.00;79.60
16267;DHT22;8241;48.786;9.250;2023-03-01T11:20:34;10.30;80.30
16267;DHT22;8241;48.786;9.250;2023-03-01T11:23:04;11.20;77.30
16267;DHT22;8241;48.786;9.250;2023-03-01T11:25:35;11.50;75.50
16267;DHT22;8241;48.786;9.250;2023-03-01T11:28:04;11.40;77.30
16267;DHT22;8241;48.786;9.250;2023-03-01T11:30:35;11.60;76.50
16267;DHT22;8241;48.786;9.250;2023-03-01T11:33:12;11.90;75.20
16267;DHT22;8241;48.786;9.250;2023-03-01T11:35:44;12.50;74.90
16267;DHT22;8241;48.786;9.250;2023-03-01T11:38:20;12.90;73.40
16267;DHT22;8241;48.786;9.250;2023-03-01T11:41:04;13.10;72.60
16267;DHT22;8241;48.786;9.250;2023-03-01T11:43:44;13.50;72.50
16267;DHT22;8241;48.786;9.250;2023-03-01T11:46:37;13.80;70.70
16267;DHT22;8241;48.786;9.250;2023-03-01T11:49:33;13.60;71.60
16267;DHT22;8241;48.786;9.250;2023-03-01T11:52:14;13.60;71.00
16267;DHT22;8241;48.786;9.250;2023-03-01T11:54:53;13.50;71.30
16267;DHT22;8241;48.786;9.250;2023-03-01T11:57:42;13.80;71.00
16267;DHT22;8241;48.786;9.250;2023-03-01T12:00:30;14.00;70.70
16267;DHT22;8241;48.786;9.250;2023-03-01T12:03:21;14.00;71.10
16267;DHT22;8241;48.786;9.250;2023-03-01T12:06:26;14.00;71.60
16267;DHT22;8241;48.786;9.250;2023-03-01T12:09:06;14.10;69.50
16267;DHT22;8241;48.786;9.250;2023-03-01T12:11:52;14.80;68.90
16267;DHT22;8241;48.786;9.250;2023-03-01T12:14:37;15.00;67.80
16267;DHT22;8241;48.786;9.250;2023-03-01T12:17:20;16.00;67.00
16267;DHT22;8241;48.786;9.250;2023-03-01T12:20:06;16.50;65.70
16267;DHT22;8241;48.786;9.250;2023-03-01T12:22:44;17.50;64.70
16267;DHT22;8241;48.786;9.250;2023-03-01T12:25:20;18.10;62.60
16267;DHT22;8241;48.786;9.250;2023-03-01T12:28:02;18.40;61.50
16267;DHT22;8241;48.786;9.250;2023-03-01T12:30:43;19.20;59.80
16267;DHT22;8241;48.786;9.250;2023-03-01T12:33:21;19.10;60.00
16267;DHT22;8241;48.786;9.250;2023-03-01T12:39:02;18.60;60.60
16267;DHT22;8241;48.786;9.250;2023-03-01T12:41:48;19.30;59.60
16267;DHT22;8241;48.786;9.250;2023-03-01T12:44:42;19.10;59.00
16267;DHT22;8241;48.786;9.250;2023-03-01T12:47:23;18.20;59.70
16267;DHT22;8241;48.786;9.250;2023-03-01T12:49:56;17.90;61.00
16267;DHT22;8241;48.786;9.250;2023-03-01T12:52:29;18.00;61.20
16267;DHT22;8241;48.786;9.250;2023-03-01T12:55:02;17.90;62.30
16267;DHT22;8241;48.786;9.250;2023-03-01T12:57:36;18.00;62.00
16267;DHT22;8241;48.786;9.250;2023-03-01T13:00:22;18.20;62.50
16267;DHT22;8241;48.786;9.250;2023-03-01T13:02:59;18.50;61.20
16267;DHT22;8241;48.786;9.250;2023-03-01T13:05:37;18.00;61.00
16267;DHT22;8241;48.786;9.250;2023-03-01T13:08:11;17.20;63.00
16267;DHT22;8241;48.786;9.250;2023-03-01T13:10:48;17.10;62.90
16267;DHT22;8241;48.786;9.250;2023-03-01T13:13:20;17.40;63.10
16267;DHT22;8241;48.786;9.250;2023-03-01T13:15:47;17.50;62.90
16267;DHT22;8241;48.786;9.250;2023-03-01T13:18:33;17.50;61.90
16267;DHT22;8241;48.786;9.250;2023-03-01T13:21:04;17.50;62.20
16267;DHT22;8241;48.786;9.250;2023-03-01T13:23:34;17.30;63.30
16267;DHT22;8241;48.786;9.250;2023-03-01T13:26:10;18.00;61.90
16267;DHT22;8241;48.786;9.250;2023-03-01T13:29:00;18.00;61.20
16267;DHT22;8241;48.786;9.250;2023-03-01T13:32:00;17.80;61.70
16267;DHT22;8241;48.786;9.250;2023-03-01T13:34:59;17.80;62.10
16267;DHT22;8241;48.786;9.250;2023-03-01T13:37:34;17.60;62.30
16267;DHT22;8241;48.786;9.250;2023-03-01T13:43:29;16.80;63.10
16267;DHT22;8241;48.786;9.250;2023-03-01T13:45:57;16.50;64.80
16267;DHT22;8241;48.786;9.250;2023-03-01T13:48:26;16.70;64.70
16267;DHT22;8241;48.786;9.250;2023-03-01T13:50:57;16.90;63.80
16267;DHT22;8241;48.786;9.250;2023-03-01T13:53:29;16.40;64.10
16267;DHT22;8241;48.786;9.250;2023-03-01T13:56:00;15.40;66.40
16267;DHT22;8241;48.786;9.250;2023-03-01T13:58:32;14.50;68.50
16267;DHT22;8241;48.786;9.250;2023-03-01T14:01:03;13.20;71.20
16267;DHT22;8241;48.786;9.250;2023-03-01T14:03:32;12.60;72.90
16267;DHT22;8241;48.786;9.250;2023-03-01T14:06:04;11.90;74.70
16267;DHT22;8241;48.786;9.250;2023-03-01T14:08:35;11.70;75.90
16267;DHT22;8241;48.786;9.250;2023-03-01T14:17:14;13.70;71.50
16267;DHT22;8241;48.786;9.250;2023-03-01T14:19:45;13.90;71.10
16267;DHT22;8241;48.786;9.250;2023-03-01T14:22:20;13.90;71.70
16267;DHT22;8241;48.786;9.250;2023-03-01T14:24:50;14.20;70.60
16267;DHT22;8241;48.786;9.250;2023-03-01T14:27:18;14.30;70.60
16267;DHT22;8241;48.786;9.250;2023-03-01T14:29:56;14.10;71.40
16267;DHT22;8241;48.786;9.250;2023-03-01T14:32:26;14.10;71.00
16267;DHT22;8241;48.786;9.250;2023-03-01T14:34:53;14.00;70.50
16267;DHT22;8241;48.786;9.250;2023-03-01T14:37:22;14.00;70.60
16267;DHT22;8241;48.786;9.250;2023-03-01T14:39:51;14.30;70.70
16267;DHT22;8241;48.786;9.250;2023-03-01T14:42:22;14.40;69.60
16267;DHT22;8241;48.786;9.250;2023-03-01T14:44:53;14.50;68.90
16267;DHT22;8241;48.786;9.250;2023-03-01T14:47:26;14.60;69.30
16267;DHT22;8241;48.786;9.250;2023-03-01T14:49:58;14.60;68.60
16267;DHT22;8241;48.786;9.250;2023-03-01T14:52:33;14.30;69.50
16267;DHT22;8241;48.786;9.250;2023-03-01T14:55:05;14.20;70.20
16267;DHT22;8241;48.786;9.250;2023-03-01T14:57:33;14.20;70.00
16267;DHT22;8241;48.786;9.250;2023-03-01T15:00:05;14.10;70.30
16267;DHT22;8241;48.786;9.250;2023-03-01T15:02:34;14.00;70.60
16267;DHT22;8241;48.786;9.250;2023-03-01T15:05:03;13.60;71.70
16267;DHT22;8241;48.786;9.250;2023-03-01T15:07:34;13.60;71.50
16267;DHT22;8241;48.786;9.250;2023-03-01T15:10:04;13.50;71.90
16267;DHT22;8241;48.786;9.250;2023-03-01T15:12:37;13.50;72.40
16267;DHT22;8241;48.786;9.250;2023-03-01T15:15:32;13.80;71.70
16267;DHT22;8241;48.786;9.250;2023-03-01T15:18:03;13.80;71.70
16267;DHT22;8241;48.786;9.250;2023-03-01T15:20:31;13.60;71.70
16267;DHT22;8241;48.786;9.250;2023-03-01T15:23:02;13.40;72.60
16267;DHT22;8241;48.786;9.250;2023-03-01T15:25:30;13.50;72.80
16267;DHT22;8241;48.786;9.250;2023-03-01T15:28:03;13.80;71.80
16267;DHT22;8241;48.786;9.250;2023-03-01T15:30:32;13.90;71.90
16267;DHT22;8241;48.786;9.250;2023-03-01T15:33:28;13.90;71.00
16267;DHT22;8241;48.786;9.250;2023-03-01T15:35:59;14.00;70.30
16267;DHT22;8241;48.786;9.250;2023-03-01T15:38:30;13.50;71.10
16267;DHT22;8241;48.786;9.250;2023-03-01T15:40:59;12.70;72.70
16267;DHT22;8241;48.786;9.250;2023-03-01T15:43:44;12.30;73.60
16267;DHT22;8241;48.786;9.250;2023-03-01T15:46:18;11.70;75.00
16267;DHT22;8241;48.786;9.250;2023-03-01T15:48:52;11.40;76.30
16267;DHT22;8241;48.786;9.250;2023-03-01T15:51:26;11.20;76.90
16267;DHT22;8241;48.786;9.250;2023-03-01T15:53:54;10.90;77.30
16267;DHT22;8241;48.786;9.250;2023-03-01T15:56:23;10.70;78.30
16267;DHT22;8241;48.786;9.250;2023-03-01T15:58:51;10.60;78.20
16267;DHT22;8241;48.786;9.250;2023-03-01T16:01:18;10.50;78.20
16267;DHT22;8241;48.786;9.250;2023-03-01T16:03:45;10.40;78.20
16267;DHT22;8241;48.786;9.250;2023-03-01T16:06:13;10.30;78.70
16267;DHT22;8241;48.786;9.250;2023-03-01T16:08:40;10.20;79.10
16267;DHT22;8241;48.786;9.250;2023-03-01T16:11:14;10.10;78.80
16267;DHT22;8241;48.786;9.250;2023-03-01T16:13:42;9.90;79.00
16267;DHT22;8241;48.786;9.250;2023-03-01T16:16:10;9.80;79.70
16267;DHT22;8241;48.786;9.250;2023-03-01T16:18:41;9.60;79.60
16267;DHT22;8241;48.786;9.250;2023-03-01T16:21:14;9.50;80.00
16267;DHT22;8241;48.786;9.250;2023-03-01T16:23:43;9.50;80.20
16267;DHT22;8241;48.786;9.250;2023-03-01T16:26:10;9.30;80.50
16267;DHT22;8241;48.786;9.250;2023-03-01T16:28:38;9.20;80.90
16267;DHT22;8241;48.786;9.250;2023-03-01T16:31:05;9.10;80.70
16267;DHT22;8241;48.786;9.250;2023-03-01T16:33:34;9.00;81.10
16267;DHT22;8241;48.786;9.250;2023-03-01T16:36:07;8.90;81.10
16267;DHT22;8241;48.786;9.250;2023-03-01T16:38:36;8.90;81.90